MDT,Max TemperatureF,Mean TemperatureF,Min TemperatureF,Max Dew PointF,MeanDew PointF,Min DewpointF,Max Humidity, Mean Humidity, Min Humidity, Max Sea Level PressureIn, Mean Sea Level PressureIn, Min Sea Level PressureIn, Max VisibilityMiles, Mean VisibilityMiles, Min VisibilityMiles, Max Wind SpeedMPH, Mean Wind SpeedMPH, Max Gust SpeedMPH,PrecipitationIn, CloudCover, Events, WindDirDegrees
2014-3-1,73,62,52,29,23,17,33,20,14,29.97,29.87,29.70,12,12,8,25,8,39,0.00,1,,155
2014-3-2,56,52,47,34,34,33,59,51,41,30.13,30.10,30.06,12,12,12,14,5,21,0.00,3,,125
2014-3-3,59,50,40,36,32,26,82,54,28,30.13,30.04,29.93,12,12,12,8,1,15,0.00,4,,87
2014-3-4,59,58,54,32,31,29,43,38,31,29.94,29.92,29.90,12,12,12,9,6,,0.00,6,,183
2014-3-5,66,54,45,34,29,22,60,38,19,30.09,29.97,29.86,12,12,12,15,6,24,0.00,0,,270
2014-3-6,66,63,60,24,23,21,24,21,18,29.99,29.98,29.96,12,12,12,2,0,,0.00,6,,90
2014-3-7,73,61,49,25,21,17,33,21,13,29.94,29.78,29.62,12,12,12,33,7,39,0.00,0,,183
2014-3-8,50,48,45,26,25,25,45,41,36,30.28,30.20,30.13,12,7,6,34,23,43,0.00,6,,14
2014-3-9,60,50,40,25,22,18,49,37,21,30.32,30.24,30.11,12,12,10,23,12,30,0.00,4,,310
2014-3-10,68,62,57,21,19,16,24,20,14,29.95,29.95,29.93,12,12,12,12,8,17,0.00,0,,152
2014-3-11,72,61,50,21,17,11,30,19,11,29.91,29.80,29.69,12,12,12,26,8,36,0.00,0,,191
2014-3-12,54,49,44,18,15,14,30,26,22,30.31,30.26,30.21,12,10,1,28,17,37,0.00,1,,99
2014-3-13,65,51,38,22,18,14,36,25,18,30.18,30.00,29.82,12,12,11,12,3,17,0.00,1,,145
2014-3-14,69,58,46,39,24,19,54,25,15,30.02,29.87,29.80,12,12,12,22,6,30,0.00,3,Rain,263
2014-3-15,65,54,44,41,30,12,78,43,20,30.10,29.87,29.74,12,11,4,48,11,66,0.00,4,,277
2014-3-16,59,48,38,32,19,8,68,36,13,30.24,30.14,30.06,12,11,5,20,9,30,0.00,2,Rain,323
2014-3-17,73,58,44,12,10,7,26,15,8,30.06,29.78,29.52,12,12,12,23,10,32,0.00,0,,202
2014-3-18,73,62,53,12,7,3,15,11,8,29.79,29.63,29.53,12,11,6,39,16,52,0.00,0,,257
2014-3-19,68,54,41,16,11,-4,31,20,9,30.18,30.03,29.81,12,6,2,31,8,39,0.00,4,,60
2014-3-20,74,58,42,15,13,8,31,18,9,30.09,29.96,29.78,12,10,8,0,0,,0.00,1,,-1
2014-3-21,75,67,59,16,11,7,15,11,8,30.00,29.84,29.68,12,11,2,32,6,43,0.00,3,,187
2014-3-22,74,63,51,16,12,8,21,13,9,30.00,29.88,29.75,12,12,12,30,12,39,0.00,1,,188
2014-3-23,63,52,42,28,21,11,53,29,14,30.12,30.00,29.90,12,11,5,40,13,53,0.00,1,,59
2014-3-24,74,57,40,24,20,13,52,25,11,30.10,29.99,29.92,12,12,12,10,5,18,0.00,1,,287
2014-3-25,68,58,49,43,29,13,66,35,15,30.07,29.91,29.78,12,11,7,33,16,44,0.00,3,Rain-Thunderstorm,39
2014-3-26,72,58,45,44,29,9,86,50,9,29.92,29.75,29.58,12,12,8,38,16,47,0.00,1,,162
2014-3-27,72,62,54,25,19,12,27,18,12,29.93,29.75,29.64,12,12,9,31,22,45,0.00,1,,203
2014-3-28,69,60,50,27,20,14,36,22,13,30.06,29.95,29.77,12,12,12,22,13,31,0.00,0,,196
2014-3-29,73,60,46,28,20,13,29,19,12,30.27,30.06,29.92,12,12,12,17,8,23,0.00,0,,73
2014-3-30,78,74,67,15,14,13,13,10,8,29.91,29.86,29.81,12,12,12,25,21,32,0.00,2,,218
2014-3-31,77,70,58,14,9,5,14,9,7,30.04,29.95,29.81,12,12,12,30,20,40,0.00,0,,189